Аэропорт: Уральск. Уральск

ICAO: UARR

METAR:
2019-09-21 16:00:00
UARR 211600Z 30002MPS 8000 -SHRA OVC020CB 08/08 Q1007 R22/CLRD70 TEMPO BKN007 RMK QFE752/1002
METAR:
2019-09-21 14:00:00
TAF UARR 211400Z 2115/2124 VRB02MPS 9999 SCT011 BKN020CB TEMPO 2115/2124 3100 -SHRA BR